sensor_id;sensor_type;location;lat;lon;timestamp;P1;durP1;ratioP1;P2;durP2;ratioP2
48534;SDS011;34323;52.022;5.686;2022-09-29T00:01:25;5.28;;;3.70;;
48534;SDS011;34323;52.022;5.686;2022-09-29T00:03:51;6.18;;;3.97;;
48534;SDS011;34323;52.022;5.686;2022-09-29T00:06:17;8.80;;;3.60;;
48534;SDS011;34323;52.022;5.686;2022-09-29T00:08:43;5.03;;;3.63;;
48534;SDS011;34323;52.022;5.686;2022-09-29T00:11:10;14.70;;;4.13;;
48534;SDS011;34323;52.022;5.686;2022-09-29T00:13:40;5.82;;;3.65;;
48534;SDS011;34323;52.022;5.686;2022-09-29T00:16:07;5.00;;;3.65;;
48534;SDS011;34323;52.022;5.686;2022-09-29T00:18:33;5.47;;;3.35;;
48534;SDS011;34323;52.022;5.686;2022-09-29T00:20:59;4.22;;;3.40;;
48534;SDS011;34323;52.022;5.686;2022-09-29T00:23:27;5.90;;;4.22;;
48534;SDS011;34323;52.022;5.686;2022-09-29T00:26:05;5.53;;;3.65;;
48534;SDS011;34323;52.022;5.686;2022-09-29T00:28:39;5.05;;;3.33;;
48534;SDS011;34323;52.022;5.686;2022-09-29T00:31:06;4.45;;;3.50;;
48534;SDS011;34323;52.022;5.686;2022-09-29T00:33:35;9.50;;;3.72;;
48534;SDS011;34323;52.022;5.686;2022-09-29T00:36:03;5.90;;;4.13;;
48534;SDS011;34323;52.022;5.686;2022-09-29T00:38:30;6.05;;;4.25;;
48534;SDS011;34323;52.022;5.686;2022-09-29T00:40:56;5.43;;;3.63;;
48534;SDS011;34323;52.022;5.686;2022-09-29T00:43:23;5.95;;;4.07;;
48534;SDS011;34323;52.022;5.686;2022-09-29T00:46:11;6.15;;;3.88;;
48534;SDS011;34323;52.022;5.686;2022-09-29T00:48:38;4.00;;;3.10;;
48534;SDS011;34323;52.022;5.686;2022-09-29T00:51:05;4.55;;;3.13;;
48534;SDS011;34323;52.022;5.686;2022-09-29T00:53:31;6.32;;;4.00;;
48534;SDS011;34323;52.022;5.686;2022-09-29T00:56:02;6.68;;;3.65;;
48534;SDS011;34323;52.022;5.686;2022-09-29T00:58:32;12.50;;;4.28;;
48534;SDS011;34323;52.022;5.686;2022-09-29T01:01:00;11.20;;;3.90;;
48534;SDS011;34323;52.022;5.686;2022-09-29T01:03:30;6.22;;;4.05;;
48534;SDS011;34323;52.022;5.686;2022-09-29T01:06:05;5.43;;;3.65;;
48534;SDS011;34323;52.022;5.686;2022-09-29T01:09:40;5.22;;;3.90;;
48534;SDS011;34323;52.022;5.686;2022-09-29T01:11:37;6.22;;;3.72;;
48534;SDS011;34323;52.022;5.686;2022-09-29T01:14:05;4.65;;;3.63;;
48534;SDS011;34323;52.022;5.686;2022-09-29T01:16:33;5.88;;;3.85;;
48534;SDS011;34323;52.022;5.686;2022-09-29T01:19:00;5.10;;;3.55;;
48534;SDS011;34323;52.022;5.686;2022-09-29T01:27:13;11.68;;;3.88;;
48534;SDS011;34323;52.022;5.686;2022-09-29T01:35:11;4.63;;;3.63;;
48534;SDS011;34323;52.022;5.686;2022-09-29T01:41:24;9.23;;;3.90;;
48534;SDS011;34323;52.022;5.686;2022-09-29T01:46:43;10.90;;;3.67;;
48534;SDS011;34323;52.022;5.686;2022-09-29T01:49:14;4.82;;;3.50;;
48534;SDS011;34323;52.022;5.686;2022-09-29T01:51:52;8.02;;;4.40;;
48534;SDS011;34323;52.022;5.686;2022-09-29T01:54:30;11.02;;;3.88;;
48534;SDS011;34323;52.022;5.686;2022-09-29T01:57:22;7.55;;;4.65;;
48534;SDS011;34323;52.022;5.686;2022-09-29T02:02:44;5.22;;;4.05;;
48534;SDS011;34323;52.022;5.686;2022-09-29T02:05:31;7.35;;;3.83;;
48534;SDS011;34323;52.022;5.686;2022-09-29T02:08:05;6.60;;;3.93;;
48534;SDS011;34323;52.022;5.686;2022-09-29T02:10:37;6.45;;;4.03;;
48534;SDS011;34323;52.022;5.686;2022-09-29T02:13:07;7.07;;;4.40;;
48534;SDS011;34323;52.022;5.686;2022-09-29T02:15:36;5.93;;;4.40;;
48534;SDS011;34323;52.022;5.686;2022-09-29T02:18:10;6.95;;;4.38;;
48534;SDS011;34323;52.022;5.686;2022-09-29T02:20:42;8.93;;;4.10;;
48534;SDS011;34323;52.022;5.686;2022-09-29T02:23:07;6.28;;;3.83;;
48534;SDS011;34323;52.022;5.686;2022-09-29T02:25:34;5.78;;;4.15;;
48534;SDS011;34323;52.022;5.686;2022-09-29T02:28:02;9.07;;;4.78;;
48534;SDS011;34323;52.022;5.686;2022-09-29T02:30:28;5.72;;;4.50;;
48534;SDS011;34323;52.022;5.686;2022-09-29T02:32:53;6.05;;;4.05;;
48534;SDS011;34323;52.022;5.686;2022-09-29T02:35:19;6.45;;;4.07;;
48534;SDS011;34323;52.022;5.686;2022-09-29T02:43:19;8.83;;;5.17;;
48534;SDS011;34323;52.022;5.686;2022-09-29T02:48:53;7.30;;;4.95;;
48534;SDS011;34323;52.022;5.686;2022-09-29T02:51:39;9.43;;;5.18;;
48534;SDS011;34323;52.022;5.686;2022-09-29T03:00:05;5.35;;;3.90;;
48534;SDS011;34323;52.022;5.686;2022-09-29T03:02:35;7.97;;;5.45;;
48534;SDS011;34323;52.022;5.686;2022-09-29T03:05:07;6.65;;;4.75;;
48534;SDS011;34323;52.022;5.686;2022-09-29T03:07:34;8.00;;;5.47;;
48534;SDS011;34323;52.022;5.686;2022-09-29T03:10:01;7.95;;;5.20;;
48534;SDS011;34323;52.022;5.686;2022-09-29T03:12:28;8.25;;;5.65;;
48534;SDS011;34323;52.022;5.686;2022-09-29T03:14:53;10.68;;;5.22;;
48534;SDS011;34323;52.022;5.686;2022-09-29T03:17:19;8.63;;;5.40;;
48534;SDS011;34323;52.022;5.686;2022-09-29T03:19:44;9.48;;;5.43;;
48534;SDS011;34323;52.022;5.686;2022-09-29T03:22:10;7.85;;;5.43;;
48534;SDS011;34323;52.022;5.686;2022-09-29T03:24:35;9.40;;;5.53;;
48534;SDS011;34323;52.022;5.686;2022-09-29T03:27:01;8.63;;;5.68;;
48534;SDS011;34323;52.022;5.686;2022-09-29T03:29:26;8.07;;;5.22;;
48534;SDS011;34323;52.022;5.686;2022-09-29T03:31:52;9.38;;;5.70;;
48534;SDS011;34323;52.022;5.686;2022-09-29T03:34:18;7.35;;;4.82;;
48534;SDS011;34323;52.022;5.686;2022-09-29T03:36:43;6.30;;;5.07;;
48534;SDS011;34323;52.022;5.686;2022-09-29T03:39:09;11.52;;;5.03;;
48534;SDS011;34323;52.022;5.686;2022-09-29T03:41:34;7.97;;;5.35;;
48534;SDS011;34323;52.022;5.686;2022-09-29T03:44:00;7.10;;;4.93;;
48534;SDS011;34323;52.022;5.686;2022-09-29T03:46:25;7.40;;;5.13;;
48534;SDS011;34323;52.022;5.686;2022-09-29T03:48:51;9.57;;;5.43;;
48534;SDS011;34323;52.022;5.686;2022-09-29T03:51:18;8.50;;;5.68;;
48534;SDS011;34323;52.022;5.686;2022-09-29T03:53:43;6.80;;;4.97;;
48534;SDS011;34323;52.022;5.686;2022-09-29T03:56:09;6.72;;;4.93;;
48534;SDS011;34323;52.022;5.686;2022-09-29T03:58:35;12.07;;;6.00;;
48534;SDS011;34323;52.022;5.686;2022-09-29T04:01:00;7.80;;;5.13;;
48534;SDS011;34323;52.022;5.686;2022-09-29T04:03:26;8.45;;;5.22;;
48534;SDS011;34323;52.022;5.686;2022-09-29T04:05:52;8.77;;;5.45;;
48534;SDS011;34323;52.022;5.686;2022-09-29T04:08:18;8.85;;;6.07;;
48534;SDS011;34323;52.022;5.686;2022-09-29T04:10:47;9.80;;;6.00;;
48534;SDS011;34323;52.022;5.686;2022-09-29T04:13:13;13.00;;;5.78;;
48534;SDS011;34323;52.022;5.686;2022-09-29T04:15:39;7.85;;;5.05;;
48534;SDS011;34323;52.022;5.686;2022-09-29T04:18:04;8.90;;;5.63;;
48534;SDS011;34323;52.022;5.686;2022-09-29T04:20:30;9.38;;;5.75;;
48534;SDS011;34323;52.022;5.686;2022-09-29T04:22:56;8.38;;;5.35;;
48534;SDS011;34323;52.022;5.686;2022-09-29T04:25:22;8.82;;;5.50;;
48534;SDS011;34323;52.022;5.686;2022-09-29T04:27:48;8.35;;;5.18;;
48534;SDS011;34323;52.022;5.686;2022-09-29T04:30:14;10.13;;;6.20;;
48534;SDS011;34323;52.022;5.686;2022-09-29T04:32:40;8.77;;;5.55;;
48534;SDS011;34323;52.022;5.686;2022-09-29T04:35:06;7.57;;;5.38;;
48534;SDS011;34323;52.022;5.686;2022-09-29T04:37:32;12.65;;;6.15;;
48534;SDS011;34323;52.022;5.686;2022-09-29T04:39:58;10.18;;;6.20;;
48534;SDS011;34323;52.022;5.686;2022-09-29T04:42:24;8.95;;;5.70;;
48534;SDS011;34323;52.022;5.686;2022-09-29T04:44:50;7.25;;;5.38;;
48534;SDS011;34323;52.022;5.686;2022-09-29T04:47:15;6.50;;;5.00;;
48534;SDS011;34323;52.022;5.686;2022-09-29T04:49:41;8.68;;;5.15;;
48534;SDS011;34323;52.022;5.686;2022-09-29T04:52:08;9.85;;;5.85;;
48534;SDS011;34323;52.022;5.686;2022-09-29T04:54:36;10.32;;;6.15;;
48534;SDS011;34323;52.022;5.686;2022-09-29T04:57:01;7.28;;;5.28;;
48534;SDS011;34323;52.022;5.686;2022-09-29T04:59:27;8.07;;;5.57;;
48534;SDS011;34323;52.022;5.686;2022-09-29T05:01:53;11.48;;;6.22;;
48534;SDS011;34323;52.022;5.686;2022-09-29T05:04:19;13.48;;;6.25;;
48534;SDS011;34323;52.022;5.686;2022-09-29T05:06:45;7.25;;;5.05;;
48534;SDS011;34323;52.022;5.686;2022-09-29T05:09:10;7.78;;;4.93;;
48534;SDS011;34323;52.022;5.686;2022-09-29T05:11:36;8.35;;;5.95;;
48534;SDS011;34323;52.022;5.686;2022-09-29T05:14:02;8.48;;;5.45;;
48534;SDS011;34323;52.022;5.686;2022-09-29T05:16:28;9.27;;;5.55;;
48534;SDS011;34323;52.022;5.686;2022-09-29T05:18:53;8.10;;;5.70;;
48534;SDS011;34323;52.022;5.686;2022-09-29T05:21:19;9.18;;;6.43;;
48534;SDS011;34323;52.022;5.686;2022-09-29T05:23:44;12.75;;;6.07;;
48534;SDS011;34323;52.022;5.686;2022-09-29T05:26:10;11.18;;;6.00;;
48534;SDS011;34323;52.022;5.686;2022-09-29T05:28:38;8.65;;;5.90;;
48534;SDS011;34323;52.022;5.686;2022-09-29T05:31:07;11.07;;;5.88;;
48534;SDS011;34323;52.022;5.686;2022-09-29T05:33:34;14.80;;;6.57;;
48534;SDS011;34323;52.022;5.686;2022-09-29T05:36:00;10.18;;;5.95;;
48534;SDS011;34323;52.022;5.686;2022-09-29T05:38:30;11.32;;;6.13;;
48534;SDS011;34323;52.022;5.686;2022-09-29T05:40:56;8.45;;;5.75;;
48534;SDS011;34323;52.022;5.686;2022-09-29T05:43:21;8.38;;;5.70;;
48534;SDS011;34323;52.022;5.686;2022-09-29T05:45:47;10.38;;;5.90;;
48534;SDS011;34323;52.022;5.686;2022-09-29T05:48:12;8.23;;;5.80;;
48534;SDS011;34323;52.022;5.686;2022-09-29T05:50:38;9.70;;;6.60;;
48534;SDS011;34323;52.022;5.686;2022-09-29T05:53:07;10.13;;;6.43;;
48534;SDS011;34323;52.022;5.686;2022-09-29T05:55:36;10.73;;;6.13;;
48534;SDS011;34323;52.022;5.686;2022-09-29T05:58:03;11.15;;;5.95;;
48534;SDS011;34323;52.022;5.686;2022-09-29T06:00:29;11.40;;;6.68;;
48534;SDS011;34323;52.022;5.686;2022-09-29T06:02:58;9.27;;;5.72;;
48534;SDS011;34323;52.022;5.686;2022-09-29T06:05:25;9.88;;;6.10;;
48534;SDS011;34323;52.022;5.686;2022-09-29T06:07:52;9.48;;;5.85;;
48534;SDS011;34323;52.022;5.686;2022-09-29T06:10:17;8.00;;;5.57;;
48534;SDS011;34323;52.022;5.686;2022-09-29T06:12:43;7.93;;;5.47;;
48534;SDS011;34323;52.022;5.686;2022-09-29T06:15:09;8.43;;;4.93;;
48534;SDS011;34323;52.022;5.686;2022-09-29T06:17:36;10.07;;;5.90;;
48534;SDS011;34323;52.022;5.686;2022-09-29T06:20:02;9.77;;;5.22;;
48534;SDS011;34323;52.022;5.686;2022-09-29T06:22:29;9.57;;;5.90;;
48534;SDS011;34323;52.022;5.686;2022-09-29T06:24:55;9.32;;;5.40;;
48534;SDS011;34323;52.022;5.686;2022-09-29T06:27:21;7.93;;;5.05;;
48534;SDS011;34323;52.022;5.686;2022-09-29T06:29:46;8.45;;;5.97;;
48534;SDS011;34323;52.022;5.686;2022-09-29T06:32:12;9.38;;;5.60;;
48534;SDS011;34323;52.022;5.686;2022-09-29T06:34:38;9.02;;;5.68;;
48534;SDS011;34323;52.022;5.686;2022-09-29T06:37:23;10.27;;;5.90;;
48534;SDS011;34323;52.022;5.686;2022-09-29T06:39:58;11.02;;;5.32;;
48534;SDS011;34323;52.022;5.686;2022-09-29T06:42:24;8.40;;;4.93;;
48534;SDS011;34323;52.022;5.686;2022-09-29T06:44:50;8.20;;;5.90;;
48534;SDS011;34323;52.022;5.686;2022-09-29T06:47:15;7.53;;;5.07;;
48534;SDS011;34323;52.022;5.686;2022-09-29T06:49:41;8.52;;;5.50;;
48534;SDS011;34323;52.022;5.686;2022-09-29T06:52:07;8.07;;;5.75;;
48534;SDS011;34323;52.022;5.686;2022-09-29T06:54:32;8.95;;;5.88;;
48534;SDS011;34323;52.022;5.686;2022-09-29T06:56:58;7.35;;;5.15;;
48534;SDS011;34323;52.022;5.686;2022-09-29T06:59:24;8.32;;;5.45;;
48534;SDS011;34323;52.022;5.686;2022-09-29T07:01:50;7.63;;;5.75;;
48534;SDS011;34323;52.022;5.686;2022-09-29T07:04:16;7.05;;;5.13;;
48534;SDS011;34323;52.022;5.686;2022-09-29T07:06:42;9.27;;;6.38;;
48534;SDS011;34323;52.022;5.686;2022-09-29T07:09:09;8.43;;;5.45;;
48534;SDS011;34323;52.022;5.686;2022-09-29T07:11:39;11.38;;;6.88;;
48534;SDS011;34323;52.022;5.686;2022-09-29T07:14:09;10.95;;;6.68;;
48534;SDS011;34323;52.022;5.686;2022-09-29T07:16:34;12.07;;;7.40;;
48534;SDS011;34323;52.022;5.686;2022-09-29T07:19:00;12.52;;;7.55;;
48534;SDS011;34323;52.022;5.686;2022-09-29T07:21:25;13.35;;;7.88;;
48534;SDS011;34323;52.022;5.686;2022-09-29T07:23:51;14.40;;;8.70;;
48534;SDS011;34323;52.022;5.686;2022-09-29T07:26:17;11.60;;;7.65;;
48534;SDS011;34323;52.022;5.686;2022-09-29T07:28:43;13.95;;;8.75;;
48534;SDS011;34323;52.022;5.686;2022-09-29T07:31:10;13.25;;;7.78;;
48534;SDS011;34323;52.022;5.686;2022-09-29T07:33:38;12.90;;;8.95;;
48534;SDS011;34323;52.022;5.686;2022-09-29T07:36:03;12.32;;;9.18;;
48534;SDS011;34323;52.022;5.686;2022-09-29T07:38:29;13.95;;;9.07;;
48534;SDS011;34323;52.022;5.686;2022-09-29T07:40:59;15.27;;;9.45;;
48534;SDS011;34323;52.022;5.686;2022-09-29T07:43:26;13.45;;;9.40;;
48534;SDS011;34323;52.022;5.686;2022-09-29T07:45:51;16.05;;;10.77;;
48534;SDS011;34323;52.022;5.686;2022-09-29T07:48:17;15.18;;;10.15;;
48534;SDS011;34323;52.022;5.686;2022-09-29T07:50:43;17.63;;;11.52;;
48534;SDS011;34323;52.022;5.686;2022-09-29T07:53:09;18.38;;;11.63;;
48534;SDS011;34323;52.022;5.686;2022-09-29T07:55:36;17.08;;;11.65;;
48534;SDS011;34323;52.022;5.686;2022-09-29T07:58:02;17.95;;;11.55;;
48534;SDS011;34323;52.022;5.686;2022-09-29T08:00:29;17.83;;;11.52;;
48534;SDS011;34323;52.022;5.686;2022-09-29T08:02:57;15.68;;;11.13;;
48534;SDS011;34323;52.022;5.686;2022-09-29T08:05:24;13.13;;;10.10;;
48534;SDS011;34323;52.022;5.686;2022-09-29T08:07:51;14.77;;;10.05;;
48534;SDS011;34323;52.022;5.686;2022-09-29T08:10:17;15.75;;;10.80;;
48534;SDS011;34323;52.022;5.686;2022-09-29T08:12:43;14.43;;;10.80;;
48534;SDS011;34323;52.022;5.686;2022-09-29T08:15:09;16.50;;;11.70;;
48534;SDS011;34323;52.022;5.686;2022-09-29T08:17:34;17.42;;;11.57;;
48534;SDS011;34323;52.022;5.686;2022-09-29T08:20:00;22.83;;;12.45;;
48534;SDS011;34323;52.022;5.686;2022-09-29T08:22:25;23.58;;;13.85;;
48534;SDS011;34323;52.022;5.686;2022-09-29T08:24:51;20.25;;;13.93;;
48534;SDS011;34323;52.022;5.686;2022-09-29T08:27:17;20.42;;;13.75;;
48534;SDS011;34323;52.022;5.686;2022-09-29T08:29:42;19.92;;;13.43;;
48534;SDS011;34323;52.022;5.686;2022-09-29T08:32:08;22.90;;;15.88;;
48534;SDS011;34323;52.022;5.686;2022-09-29T08:34:33;28.58;;;16.88;;
48534;SDS011;34323;52.022;5.686;2022-09-29T08:37:00;23.67;;;15.70;;
48534;SDS011;34323;52.022;5.686;2022-09-29T08:39:26;29.67;;;16.80;;
48534;SDS011;34323;52.022;5.686;2022-09-29T08:41:52;30.15;;;18.42;;
48534;SDS011;34323;52.022;5.686;2022-09-29T08:47:23;28.90;;;17.10;;
48534;SDS011;34323;52.022;5.686;2022-09-29T08:49:58;29.80;;;18.90;;
48534;SDS011;34323;52.022;5.686;2022-09-29T08:54:56;28.40;;;17.08;;
48534;SDS011;34323;52.022;5.686;2022-09-29T08:57:27;28.85;;;18.60;;
48534;SDS011;34323;52.022;5.686;2022-09-29T08:59:56;31.20;;;20.08;;
48534;SDS011;34323;52.022;5.686;2022-09-29T09:10:44;35.92;;;23.05;;
48534;SDS011;34323;52.022;5.686;2022-09-29T09:21:18;36.58;;;22.92;;
48534;SDS011;34323;52.022;5.686;2022-09-29T09:23:55;37.30;;;23.13;;
48534;SDS011;34323;52.022;5.686;2022-09-29T09:26:30;37.08;;;23.27;;
48534;SDS011;34323;52.022;5.686;2022-09-29T09:29:02;35.17;;;21.65;;
48534;SDS011;34323;52.022;5.686;2022-09-29T09:31:39;35.35;;;22.15;;
48534;SDS011;34323;52.022;5.686;2022-09-29T09:34:19;29.83;;;20.98;;
48534;SDS011;34323;52.022;5.686;2022-09-29T09:37:10;27.90;;;19.02;;
48534;SDS011;34323;52.022;5.686;2022-09-29T09:39:49;28.42;;;18.73;;
48534;SDS011;34323;52.022;5.686;2022-09-29T09:42:23;30.33;;;19.27;;
48534;SDS011;34323;52.022;5.686;2022-09-29T09:45:19;30.73;;;18.98;;
48534;SDS011;34323;52.022;5.686;2022-09-29T09:48:00;34.03;;;19.25;;
48534;SDS011;34323;52.022;5.686;2022-09-29T09:50:33;28.75;;;18.27;;
48534;SDS011;34323;52.022;5.686;2022-09-29T09:53:09;28.52;;;17.55;;
48534;SDS011;34323;52.022;5.686;2022-09-29T09:55:41;30.85;;;19.02;;
48534;SDS011;34323;52.022;5.686;2022-09-29T10:00:42;32.35;;;19.40;;
48534;SDS011;34323;52.022;5.686;2022-09-29T10:03:11;31.85;;;20.30;;
48534;SDS011;34323;52.022;5.686;2022-09-29T10:05:40;31.50;;;20.60;;
48534;SDS011;34323;52.022;5.686;2022-09-29T10:08:10;34.05;;;20.33;;
48534;SDS011;34323;52.022;5.686;2022-09-29T10:10:39;31.92;;;19.40;;
48534;SDS011;34323;52.022;5.686;2022-09-29T10:13:08;30.42;;;19.05;;
48534;SDS011;34323;52.022;5.686;2022-09-29T10:15:37;33.03;;;19.67;;
48534;SDS011;34323;52.022;5.686;2022-09-29T10:18:12;31.73;;;19.00;;
48534;SDS011;34323;52.022;5.686;2022-09-29T10:20:47;30.60;;;17.83;;
48534;SDS011;34323;52.022;5.686;2022-09-29T10:23:32;26.90;;;17.48;;
48534;SDS011;34323;52.022;5.686;2022-09-29T10:28:38;24.88;;;17.17;;
48534;SDS011;34323;52.022;5.686;2022-09-29T10:31:20;25.35;;;17.13;;
48534;SDS011;34323;52.022;5.686;2022-09-29T10:33:54;29.10;;;17.95;;
48534;SDS011;34323;52.022;5.686;2022-09-29T10:36:31;26.85;;;16.38;;
48534;SDS011;34323;52.022;5.686;2022-09-29T10:39:28;24.67;;;16.15;;
48534;SDS011;34323;52.022;5.686;2022-09-29T10:42:20;21.13;;;14.55;;
48534;SDS011;34323;52.022;5.686;2022-09-29T10:47:44;15.27;;;10.57;;
48534;SDS011;34323;52.022;5.686;2022-09-29T10:50:30;16.25;;;11.23;;
48534;SDS011;34323;52.022;5.686;2022-09-29T10:55:56;18.02;;;11.07;;
48534;SDS011;34323;52.022;5.686;2022-09-29T11:01:15;16.13;;;11.35;;
48534;SDS011;34323;52.022;5.686;2022-09-29T11:04:00;19.08;;;13.60;;
48534;SDS011;34323;52.022;5.686;2022-09-29T11:06:30;20.83;;;13.38;;
48534;SDS011;34323;52.022;5.686;2022-09-29T11:09:01;17.40;;;11.10;;
48534;SDS011;34323;52.022;5.686;2022-09-29T11:11:30;12.32;;;9.20;;
48534;SDS011;34323;52.022;5.686;2022-09-29T11:14:00;11.65;;;8.60;;
48534;SDS011;34323;52.022;5.686;2022-09-29T11:16:33;17.50;;;11.15;;
48534;SDS011;34323;52.022;5.686;2022-09-29T11:19:06;14.35;;;11.07;;
48534;SDS011;34323;52.022;5.686;2022-09-29T11:30:09;9.65;;;7.95;;
48534;SDS011;34323;52.022;5.686;2022-09-29T11:33:02;8.38;;;5.30;;
48534;SDS011;34323;52.022;5.686;2022-09-29T11:41:01;8.65;;;6.40;;
48534;SDS011;34323;52.022;5.686;2022-09-29T11:49:18;6.97;;;5.18;;
48534;SDS011;34323;52.022;5.686;2022-09-29T11:57:35;7.75;;;5.82;;
48534;SDS011;34323;52.022;5.686;2022-09-29T12:00:42;5.05;;;3.80;;
48534;SDS011;34323;52.022;5.686;2022-09-29T12:03:35;5.90;;;4.65;;
48534;SDS011;34323;52.022;5.686;2022-09-29T12:11:43;6.75;;;4.50;;
48534;SDS011;34323;52.022;5.686;2022-09-29T12:17:01;8.77;;;5.40;;
48534;SDS011;34323;52.022;5.686;2022-09-29T12:19:34;7.60;;;5.70;;
48534;SDS011;34323;52.022;5.686;2022-09-29T12:22:03;9.05;;;5.03;;
48534;SDS011;34323;52.022;5.686;2022-09-29T12:24:42;6.63;;;5.25;;
48534;SDS011;34323;52.022;5.686;2022-09-29T12:27:18;11.82;;;5.60;;
48534;SDS011;34323;52.022;5.686;2022-09-29T12:29:59;4.65;;;4.00;;
48534;SDS011;34323;52.022;5.686;2022-09-29T12:32:31;10.00;;;5.20;;
48534;SDS011;34323;52.022;5.686;2022-09-29T12:35:28;4.22;;;2.90;;
48534;SDS011;34323;52.022;5.686;2022-09-29T12:49:20;4.65;;;3.42;;
48534;SDS011;34323;52.022;5.686;2022-09-29T12:52:01;5.38;;;3.10;;
48534;SDS011;34323;52.022;5.686;2022-09-29T12:54:55;3.90;;;2.25;;
48534;SDS011;34323;52.022;5.686;2022-09-29T12:57:34;3.65;;;2.60;;
48534;SDS011;34323;52.022;5.686;2022-09-29T13:00:05;4.30;;;1.98;;
48534;SDS011;34323;52.022;5.686;2022-09-29T13:05:22;2.60;;;1.90;;
48534;SDS011;34323;52.022;5.686;2022-09-29T13:13:55;2.10;;;1.55;;
48534;SDS011;34323;52.022;5.686;2022-09-29T13:19:23;2.58;;;1.67;;
48534;SDS011;34323;52.022;5.686;2022-09-29T13:27:36;1.05;;;0.90;;
48534;SDS011;34323;52.022;5.686;2022-09-29T13:30:26;1.92;;;0.90;;
48534;SDS011;34323;52.022;5.686;2022-09-29T13:33:17;1.70;;;1.27;;
48534;SDS011;34323;52.022;5.686;2022-09-29T13:35:46;1.67;;;1.40;;
48534;SDS011;34323;52.022;5.686;2022-09-29T13:38:15;6.15;;;1.70;;
48534;SDS011;34323;52.022;5.686;2022-09-29T13:46:25;2.08;;;1.00;;
48534;SDS011;34323;52.022;5.686;2022-09-29T13:51:48;1.88;;;1.10;;
48534;SDS011;34323;52.022;5.686;2022-09-29T13:54:21;1.70;;;1.48;;
48534;SDS011;34323;52.022;5.686;2022-09-29T13:56:59;2.70;;;1.83;;
48534;SDS011;34323;52.022;5.686;2022-09-29T13:59:44;1.63;;;1.52;;
48534;SDS011;34323;52.022;5.686;2022-09-29T14:02:39;2.63;;;2.00;;
48534;SDS011;34323;52.022;5.686;2022-09-29T14:16:16;3.17;;;1.90;;
48534;SDS011;34323;52.022;5.686;2022-09-29T14:18:59;2.35;;;1.88;;
48534;SDS011;34323;52.022;5.686;2022-09-29T14:21:48;4.03;;;2.22;;
48534;SDS011;34323;52.022;5.686;2022-09-29T14:30:01;3.55;;;2.00;;
48534;SDS011;34323;52.022;5.686;2022-09-29T14:32:39;2.20;;;1.60;;
48534;SDS011;34323;52.022;5.686;2022-09-29T14:35:17;2.92;;;1.95;;
48534;SDS011;34323;52.022;5.686;2022-09-29T14:38:01;2.55;;;1.52;;
48534;SDS011;34323;52.022;5.686;2022-09-29T14:40:55;3.47;;;1.50;;
48534;SDS011;34323;52.022;5.686;2022-09-29T14:43:38;2.75;;;2.10;;
48534;SDS011;34323;52.022;5.686;2022-09-29T14:55:15;4.78;;;3.42;;
48534;SDS011;34323;52.022;5.686;2022-09-29T14:58:15;4.05;;;2.97;;
48534;SDS011;34323;52.022;5.686;2022-09-29T15:01:08;3.25;;;2.85;;
48534;SDS011;34323;52.022;5.686;2022-09-29T15:03:39;4.78;;;2.40;;
48534;SDS011;34323;52.022;5.686;2022-09-29T15:06:13;4.35;;;3.42;;
48534;SDS011;34323;52.022;5.686;2022-09-29T15:08:41;6.80;;;3.15;;
48534;SDS011;34323;52.022;5.686;2022-09-29T15:11:24;4.10;;;2.97;;
48534;SDS011;34323;52.022;5.686;2022-09-29T15:16:43;3.63;;;2.38;;
48534;SDS011;34323;52.022;5.686;2022-09-29T15:27:50;3.95;;;2.53;;
48534;SDS011;34323;52.022;5.686;2022-09-29T15:30:19;4.70;;;2.80;;
48534;SDS011;34323;52.022;5.686;2022-09-29T15:32:46;5.50;;;2.67;;
48534;SDS011;34323;52.022;5.686;2022-09-29T15:35:15;4.03;;;2.47;;
48534;SDS011;34323;52.022;5.686;2022-09-29T15:40:15;2.63;;;2.05;;
48534;SDS011;34323;52.022;5.686;2022-09-29T15:42:45;3.95;;;2.40;;
48534;SDS011;34323;52.022;5.686;2022-09-29T15:45:14;2.80;;;2.28;;
48534;SDS011;34323;52.022;5.686;2022-09-29T15:47:48;2.22;;;1.85;;
48534;SDS011;34323;52.022;5.686;2022-09-29T15:50:24;2.50;;;2.08;;
48534;SDS011;34323;52.022;5.686;2022-09-29T15:52:51;5.75;;;2.17;;
48534;SDS011;34323;52.022;5.686;2022-09-29T15:55:21;3.58;;;2.20;;
48534;SDS011;34323;52.022;5.686;2022-09-29T15:57:48;4.13;;;2.40;;
48534;SDS011;34323;52.022;5.686;2022-09-29T16:02:46;5.60;;;2.75;;
48534;SDS011;34323;52.022;5.686;2022-09-29T16:05:19;5.97;;;3.10;;
48534;SDS011;34323;52.022;5.686;2022-09-29T16:07:47;3.58;;;2.20;;
48534;SDS011;34323;52.022;5.686;2022-09-29T16:10:18;4.85;;;2.90;;
48534;SDS011;34323;52.022;5.686;2022-09-29T16:12:47;4.88;;;2.67;;
48534;SDS011;34323;52.022;5.686;2022-09-29T16:15:31;6.00;;;2.38;;
48534;SDS011;34323;52.022;5.686;2022-09-29T16:18:00;3.53;;;2.47;;
48534;SDS011;34323;52.022;5.686;2022-09-29T16:20:30;4.82;;;3.03;;
48534;SDS011;34323;52.022;5.686;2022-09-29T16:23:08;3.47;;;2.58;;
48534;SDS011;34323;52.022;5.686;2022-09-29T16:25:44;3.20;;;2.47;;
48534;SDS011;34323;52.022;5.686;2022-09-29T16:28:23;4.60;;;2.92;;
48534;SDS011;34323;52.022;5.686;2022-09-29T16:30:59;4.07;;;2.53;;
48534;SDS011;34323;52.022;5.686;2022-09-29T16:33:26;4.47;;;2.58;;
48534;SDS011;34323;52.022;5.686;2022-09-29T16:38:19;7.65;;;3.13;;
48534;SDS011;34323;52.022;5.686;2022-09-29T16:41:04;3.80;;;2.42;;
48534;SDS011;34323;52.022;5.686;2022-09-29T16:44:01;4.60;;;3.00;;
48534;SDS011;34323;52.022;5.686;2022-09-29T16:46:30;3.50;;;2.50;;
48534;SDS011;34323;52.022;5.686;2022-09-29T16:48:56;5.10;;;2.55;;
48534;SDS011;34323;52.022;5.686;2022-09-29T16:51:22;4.88;;;2.63;;
48534;SDS011;34323;52.022;5.686;2022-09-29T16:53:48;4.18;;;2.58;;
48534;SDS011;34323;52.022;5.686;2022-09-29T16:56:16;3.88;;;2.70;;
48534;SDS011;34323;52.022;5.686;2022-09-29T16:59:09;6.75;;;3.35;;
48534;SDS011;34323;52.022;5.686;2022-09-29T17:01:37;7.50;;;3.10;;
48534;SDS011;34323;52.022;5.686;2022-09-29T17:04:05;5.57;;;3.25;;
48534;SDS011;34323;52.022;5.686;2022-09-29T17:06:31;6.13;;;2.88;;
48534;SDS011;34323;52.022;5.686;2022-09-29T17:08:57;3.58;;;2.40;;
48534;SDS011;34323;52.022;5.686;2022-09-29T17:11:23;3.70;;;2.75;;
48534;SDS011;34323;52.022;5.686;2022-09-29T17:13:49;2.88;;;2.20;;
48534;SDS011;34323;52.022;5.686;2022-09-29T17:16:15;3.60;;;2.50;;
48534;SDS011;34323;52.022;5.686;2022-09-29T17:18:46;4.88;;;2.92;;
48534;SDS011;34323;52.022;5.686;2022-09-29T17:21:13;4.78;;;2.90;;
48534;SDS011;34323;52.022;5.686;2022-09-29T17:23:39;3.63;;;2.40;;
48534;SDS011;34323;52.022;5.686;2022-09-29T17:26:05;4.55;;;2.78;;
48534;SDS011;34323;52.022;5.686;2022-09-29T17:28:55;4.03;;;2.88;;
48534;SDS011;34323;52.022;5.686;2022-09-29T17:31:21;4.93;;;3.03;;
48534;SDS011;34323;52.022;5.686;2022-09-29T17:33:47;5.20;;;2.95;;
48534;SDS011;34323;52.022;5.686;2022-09-29T17:36:12;5.75;;;3.55;;
48534;SDS011;34323;52.022;5.686;2022-09-29T17:38:38;5.13;;;2.92;;
48534;SDS011;34323;52.022;5.686;2022-09-29T17:41:05;4.40;;;2.85;;
48534;SDS011;34323;52.022;5.686;2022-09-29T17:43:31;5.15;;;2.78;;
48534;SDS011;34323;52.022;5.686;2022-09-29T17:45:57;5.22;;;3.17;;
48534;SDS011;34323;52.022;5.686;2022-09-29T17:48:24;6.00;;;3.53;;
48534;SDS011;34323;52.022;5.686;2022-09-29T17:50:50;9.57;;;3.33;;
48534;SDS011;34323;52.022;5.686;2022-09-29T17:53:18;6.05;;;2.92;;
48534;SDS011;34323;52.022;5.686;2022-09-29T17:55:45;5.03;;;3.17;;
48534;SDS011;34323;52.022;5.686;2022-09-29T17:58:15;4.57;;;3.15;;
48534;SDS011;34323;52.022;5.686;2022-09-29T18:00:44;7.72;;;3.03;;
48534;SDS011;34323;52.022;5.686;2022-09-29T18:03:13;5.30;;;3.17;;
48534;SDS011;34323;52.022;5.686;2022-09-29T18:05:41;5.38;;;3.20;;
48534;SDS011;34323;52.022;5.686;2022-09-29T18:08:17;5.03;;;3.03;;